Time;durP1;ratioP1;P1;durP2;ratioP2;P2;SDS_P1;SDS_P2;PMS_P1;PMS_P2;Temp;Humidity;BMP_temperature;BMP_pressure;BME280_temperature;BME280_humidity;BME280_pressure;Samples;Min_cycle;Max_cycle;Signal;HPM_P1;HPM_P2
2021/10/01 04:01:00;;;;;;;1.17;1.13;;;11.10;99.90;;;;;;5692973;23;20225;-67
2021/10/01 04:03:26;;;;;;;1.80;1.70;;;11.10;99.90;;;;;;4937493;29;20273;-69
2021/10/01 04:05:53;;;;;;;1.80;1.25;;;11.10;99.90;;;;;;4939277;28;20218;-68
2021/10/01 04:08:20;;;;;;;1.35;1.35;;;11.10;99.90;;;;;;4938641;29;20353;-68
2021/10/01 04:10:47;;;;;;;1.58;1.25;;;11.10;99.90;;;;;;4938618;29;20234;-69
2021/10/01 04:13:14;;;;;;;1.70;1.60;;;11.10;99.90;;;;;;4938614;29;20248;-68
2021/10/01 04:15:41;;;;;;;1.77;1.50;;;11.10;99.90;;;;;;4938519;29;20296;-69
2021/10/01 04:18:09;;;;;;;1.63;1.52;;;11.10;99.90;;;;;;4937834;29;20214;-69
2021/10/01 04:20:38;;;;;;;1.70;1.63;;;11.10;99.90;;;;;;4938495;29;20689;-69
2021/10/01 04:23:05;;;;;;;2.03;1.83;;;11.10;99.90;;;;;;4937964;29;20654;-69
2021/10/01 04:25:32;;;;;;;1.75;1.63;;;11.10;99.90;;;;;;4938625;29;20209;-70
2021/10/01 04:27:59;;;;;;;1.20;1.20;;;11.10;99.90;;;;;;4938366;29;20651;-70
2021/10/01 04:30:26;;;;;;;1.25;1.25;;;11.10;99.90;;;;;;4935767;29;20614;-70
2021/10/01 04:33:01;;;;;;;2.75;1.48;;;11.10;99.90;;;;;;4918543;29;20269;-70
2021/10/01 04:35:29;;;;;;;1.75;1.70;;;11.10;99.90;;;;;;4919626;29;20265;-70
2021/10/01 04:37:56;;;;;;;5.47;1.52;;;11.10;99.90;;;;;;4918951;29;20214;-70
2021/10/01 04:40:22;;;;;;;7.65;2.00;;;11.10;99.90;;;;;;4919384;29;20215;-71
2021/10/01 04:42:49;;;;;;;1.60;1.50;;;11.00;99.90;;;;;;4919270;29;20364;-71
2021/10/01 04:45:16;;;;;;;1.33;1.33;;;11.00;99.90;;;;;;4919529;29;20551;-71
2021/10/01 04:47:42;;;;;;;1.60;1.48;;;11.00;99.90;;;;;;4918278;29;20265;-71
2021/10/01 04:50:09;;;;;;;1.35;1.30;;;11.00;99.90;;;;;;4919037;29;20590;-71
2021/10/01 04:52:37;;;;;;;2.10;1.45;;;11.00;99.90;;;;;;4919235;29;20206;-70
2021/10/01 04:55:05;;;;;;;1.85;1.30;;;10.90;99.90;;;;;;4919106;29;20230;-71
2021/10/01 04:57:32;;;;;;;1.65;1.40;;;10.90;99.90;;;;;;4919111;29;20266;-72
2021/10/01 04:59:59;;;;;;;3.08;1.90;;;10.90;99.90;;;;;;4918807;29;20584;-69
2021/10/01 05:02:26;;;;;;;2.47;1.73;;;10.90;99.90;;;;;;4918059;29;20250;-69
2021/10/01 05:04:55;;;;;;;1.50;1.40;;;10.90;99.90;;;;;;4918320;29;20214;-69
2021/10/01 05:07:21;;;;;;;2.60;1.45;;;10.80;99.90;;;;;;4918436;29;20225;-69
2021/10/01 05:09:52;;;;;;;4.03;1.70;;;10.80;99.90;;;;;;4918623;29;20217;-69
2021/10/01 05:12:18;;;;;;;1.45;1.45;;;10.80;99.90;;;;;;4918186;29;20249;-69
2021/10/01 05:14:45;;;;;;;2.05;1.98;;;10.80;99.90;;;;;;4918434;29;20226;-69
2021/10/01 05:17:12;;;;;;;1.83;1.60;;;10.80;99.90;;;;;;4917830;29;20624;-69
2021/10/01 05:19:39;;;;;;;1.55;1.55;;;10.80;99.90;;;;;;4918049;29;20218;-68
2021/10/01 05:22:05;;;;;;;2.35;1.40;;;10.80;99.90;;;;;;4918046;29;20285;-70
2021/10/01 05:24:32;;;;;;;3.50;1.52;;;10.70;99.90;;;;;;4918332;29;20640;-68
2021/10/01 05:27:00;;;;;;;1.95;1.33;;;10.70;99.90;;;;;;4918239;29;20230;-68
2021/10/01 05:29:27;;;;;;;2.78;1.70;;;10.70;99.90;;;;;;4918116;29;20670;-69
2021/10/01 05:31:54;;;;;;;2.33;1.77;;;10.70;99.90;;;;;;4918286;29;20599;-68
2021/10/01 05:34:28;;;;;;;2.20;1.45;;;10.70;99.90;;;;;;4917923;29;20217;-69
2021/10/01 05:36:54;;;;;;;5.25;1.45;;;10.70;99.90;;;;;;4919079;29;20230;-68
2021/10/01 05:39:21;;;;;;;1.63;1.60;;;10.70;99.90;;;;;;4918090;29;20214;-69
2021/10/01 05:41:47;;;;;;;1.75;1.75;;;10.80;99.90;;;;;;4917974;29;20301;-69
2021/10/01 05:44:15;;;;;;;2.95;1.77;;;10.70;99.90;;;;;;4917812;29;20692;-68
2021/10/01 05:46:44;;;;;;;1.40;1.40;;;10.80;99.90;;;;;;4917789;29;20254;-71
2021/10/01 05:49:14;;;;;;;2.45;1.85;;;10.80;99.90;;;;;;4917148;29;20210;-72
2021/10/01 05:51:47;;;;;;;1.63;1.55;;;10.80;99.90;;;;;;4917992;29;20230;-70
2021/10/01 05:54:21;;;;;;;1.40;1.40;;;10.80;99.90;;;;;;4917264;29;20210;-71
2021/10/01 05:56:48;;;;;;;1.38;1.38;;;10.80;99.90;;;;;;4917993;29;20242;-72
2021/10/01 05:59:16;;;;;;;1.77;1.48;;;10.80;99.90;;;;;;4917578;29;20214;-72
2021/10/01 06:01:43;;;;;;;1.40;1.30;;;10.90;99.90;;;;;;4918059;29;20242;-71
2021/10/01 06:04:10;;;;;;;1.85;1.75;;;10.90;99.90;;;;;;4916888;29;20217;-71
2021/10/01 06:06:37;;;;;;;4.22;1.30;;;10.90;99.90;;;;;;4916380;29;20615;-71
2021/10/01 06:09:07;;;;;;;1.42;1.42;;;10.90;99.90;;;;;;4917677;29;20267;-71
2021/10/01 06:11:34;;;;;;;4.18;1.40;;;11.00;99.90;;;;;;4917936;29;20269;-69
2021/10/01 06:14:01;;;;;;;4.18;1.55;;;11.00;99.90;;;;;;4917227;29;20703;-69
2021/10/01 06:16:29;;;;;;;1.65;1.55;;;11.00;99.90;;;;;;4917736;29;20721;-72
2021/10/01 06:18:56;;;;;;;1.60;1.50;;;11.00;99.90;;;;;;4916882;29;20219;-72
2021/10/01 06:21:22;;;;;;;1.30;1.30;;;11.10;99.90;;;;;;4917621;29;20234;-72
2021/10/01 06:23:49;;;;;;;1.63;1.55;;;11.10;99.90;;;;;;4917104;29;20664;-71
2021/10/01 06:26:16;;;;;;;2.03;1.73;;;11.10;99.90;;;;;;4919124;29;20572;-70
2021/10/01 06:28:42;;;;;;;1.42;1.42;;;11.20;99.90;;;;;;4917503;29;20607;-70
2021/10/01 06:31:09;;;;;;;2.25;1.42;;;11.20;99.90;;;;;;4917686;29;20226;-69
2021/10/01 06:33:38;;;;;;;2.80;1.10;;;11.20;99.90;;;;;;4916356;29;20210;-70
2021/10/01 06:36:05;;;;;;;1.65;1.65;;;11.20;99.90;;;;;;4917535;29;20234;-70
2021/10/01 06:38:32;;;;;;;1.40;1.25;;;11.30;99.90;;;;;;4916855;29;20222;-70
2021/10/01 06:40:59;;;;;;;1.60;1.50;;;11.30;99.90;;;;;;4917089;29;20308;-70
2021/10/01 06:43:27;;;;;;;2.55;1.42;;;11.40;99.90;;;;;;4917157;29;20222;-70
2021/10/01 06:45:55;;;;;;;1.73;1.63;;;11.40;99.90;;;;;;4917635;29;20202;-70
2021/10/01 06:48:29;;;;;;;1.60;1.50;;;11.40;99.90;;;;;;4916396;29;20211;-70
2021/10/01 06:51:24;;;;;;;1.30;1.20;;;11.50;99.90;;;;;;4917043;29;20300;-70
2021/10/01 07:35:47;;;;;;;0.90;0.90;;;12.60;99.90;;;;;;4915633;29;21006;-71
2021/10/01 08:19:24;;;;;;;1.27;1.27;;;13.40;99.90;;;;;;4920504;29;20461;-72
2021/10/01 08:21:53;;;;;;;1.30;1.20;;;13.50;99.90;;;;;;4926355;29;21032;-72
2021/10/01 08:24:20;;;;;;;1.70;1.20;;;13.60;99.90;;;;;;4924192;29;20494;-72
2021/10/01 08:26:48;;;;;;;2.30;1.13;;;13.60;99.90;;;;;;4928268;29;20987;-72
2021/10/01 08:29:17;;;;;;;1.90;1.10;;;13.70;99.90;;;;;;4928492;29;20947;-72
2021/10/01 08:31:45;;;;;;;4.80;0.80;;;13.80;99.90;;;;;;4929917;29;20490;-72
2021/10/01 08:34:12;;;;;;;1.20;1.17;;;13.90;99.90;;;;;;4931590;29;20490;-72
2021/10/01 08:36:39;;;;;;;1.07;1.00;;;14.00;99.90;;;;;;4932230;29;20585;-70
2021/10/01 08:39:09;;;;;;;3.90;1.20;;;14.10;99.90;;;;;;4922401;29;20532;-70
2021/10/01 08:41:36;;;;;;;1.10;1.10;;;14.20;99.90;;;;;;4920754;29;20483;-69
2021/10/01 08:44:04;;;;;;;0.60;0.60;;;14.30;99.90;;;;;;4916204;29;20467;-69
2021/10/01 08:46:32;;;;;;;0.87;0.87;;;14.30;99.90;;;;;;4917876;29;20520;-69
2021/10/01 08:49:01;;;;;;;1.03;1.03;;;14.40;99.90;;;;;;4919172;29;20470;-68
2021/10/01 08:51:29;;;;;;;0.60;0.60;;;14.50;99.90;;;;;;4919719;29;20497;-68
2021/10/01 08:53:56;;;;;;;4.63;1.10;;;14.50;99.90;;;;;;4919025;29;20541;-68
2021/10/01 08:56:24;;;;;;;0.80;0.80;;;14.50;99.90;;;;;;4919416;29;20489;-68
2021/10/01 08:58:51;;;;;;;1.73;1.20;;;14.50;99.90;;;;;;4919424;29;20625;-68
2021/10/01 09:01:19;;;;;;;1.30;1.30;;;14.50;99.90;;;;;;4919055;29;20501;-69
2021/10/01 09:03:47;;;;;;;5.30;1.07;;;14.50;99.90;;;;;;4917935;29;20474;-70
2021/10/01 09:06:15;;;;;;;1.30;1.03;;;14.60;99.90;;;;;;4919868;29;20462;-73
2021/10/01 09:08:50;;;;;;;2.73;0.93;;;14.60;99.90;;;;;;4919872;29;20813;-73
2021/10/01 09:11:17;;;;;;;1.40;0.93;;;14.60;99.90;;;;;;4919573;29;21049;-73
2021/10/01 09:13:44;;;;;;;2.00;2.00;;;14.60;99.90;;;;;;4919334;29;20462;-73
2021/10/01 09:16:13;;;;;;;1.07;1.07;;;14.70;99.90;;;;;;4919105;29;21069;-73
2021/10/01 09:18:42;;;;;;;1.33;1.23;;;14.80;99.90;;;;;;4917849;29;20960;-73
2021/10/01 09:21:12;;;;;;;1.20;1.20;;;14.80;99.90;;;;;;4918115;29;20494;-73
2021/10/01 09:23:45;;;;;;;2.40;2.20;;;14.80;99.90;;;;;;4918424;29;20521;-73
2021/10/01 09:26:14;;;;;;;1.40;1.40;;;14.80;99.90;;;;;;4918542;29;20466;-73
2021/10/01 09:28:47;;;;;;;1.67;1.57;;;14.80;99.90;;;;;;4918256;29;20525;-70
2021/10/01 09:31:32;;;;;;;1.60;1.50;;;14.80;99.90;;;;;;4918543;29;20848;-72
2021/10/01 09:33:59;;;;;;;1.20;1.20;;;14.80;99.90;;;;;;4917551;29;20522;-72
2021/10/01 09:36:28;;;;;;;1.80;1.60;;;14.80;99.90;;;;;;4918808;29;20493;-72
2021/10/01 09:38:55;;;;;;;1.87;1.20;;;14.90;99.90;;;;;;4918340;29;20486;-69
2021/10/01 09:41:25;;;;;;;1.27;1.10;;;14.90;99.90;;;;;;4918032;29;20494;-69
2021/10/01 09:44:05;;;;;;;1.50;1.40;;;14.90;99.90;;;;;;4917917;29;20576;-69
2021/10/01 09:46:41;;;;;;;1.10;1.10;;;14.90;99.90;;;;;;4917816;29;20541;-69
2021/10/01 09:49:09;;;;;;;2.20;1.20;;;15.00;99.90;;;;;;4917280;29;20545;-69
2021/10/01 09:51:39;;;;;;;1.00;1.00;;;15.10;99.90;;;;;;4918197;29;20589;-69
2021/10/01 09:54:12;;;;;;;2.43;1.27;;;15.10;99.90;;;;;;4918490;29;20470;-70
2021/10/01 09:56:40;;;;;;;1.00;1.00;;;15.20;99.90;;;;;;4917426;29;20501;-70
2021/10/01 09:59:15;;;;;;;0.93;0.93;;;15.20;99.90;;;;;;4917397;29;20470;-70
2021/10/01 10:02:02;;;;;;;1.47;1.40;;;15.30;99.90;;;;;;4917701;29;20497;-70
2021/10/01 10:04:29;;;;;;;0.80;0.80;;;15.30;99.90;;;;;;4916946;29;20890;-70
2021/10/01 10:06:58;;;;;;;0.70;0.70;;;15.40;99.90;;;;;;4917804;29;20884;-70
2021/10/01 10:09:33;;;;;;;0.97;0.90;;;15.40;99.90;;;;;;4919602;29;20809;-70
2021/10/01 10:12:01;;;;;;;0.97;0.93;;;15.50;99.90;;;;;;4936604;29;20493;-70
2021/10/01 10:14:28;;;;;;;1.93;1.17;;;15.50;99.90;;;;;;4936386;29;20469;-70
2021/10/01 10:16:58;;;;;;;0.80;0.80;;;15.60;99.90;;;;;;4936660;29;20486;-70
2021/10/01 10:19:25;;;;;;;0.50;0.50;;;15.60;99.90;;;;;;4935465;29;20809;-70
2021/10/01 10:21:51;;;;;;;0.90;0.90;;;15.70;99.90;;;;;;4936673;29;20485;-70
2021/10/01 10:24:19;;;;;;;4.00;0.73;;;15.80;99.90;;;;;;4935894;29;20474;-70
2021/10/01 10:26:46;;;;;;;1.13;0.87;;;15.80;99.90;;;;;;4936537;29;20458;-70
2021/10/01 10:29:14;;;;;;;0.87;0.77;;;16.00;99.90;;;;;;4936045;29;20806;-70
2021/10/01 10:31:44;;;;;;;1.07;1.07;;;16.00;99.90;;;;;;4936354;29;20598;-70
2021/10/01 10:34:19;;;;;;;0.90;0.90;;;16.10;99.90;;;;;;4934918;29;20476;-70
2021/10/01 10:36:47;;;;;;;2.20;1.10;;;16.10;99.90;;;;;;4936547;29;20473;-70
2021/10/01 10:39:50;;;;;;;0.80;0.80;;;16.10;99.90;;;;;;4936058;29;20465;-70
2021/10/01 10:42:29;;;;;;;0.90;0.90;;;16.20;99.90;;;;;;4926437;29;20493;-70
2021/10/01 10:44:58;;;;;;;3.17;0.83;;;16.10;99.90;;;;;;4916949;29;20470;-72
2021/10/01 10:47:51;;;;;;;0.70;0.70;;;16.10;99.90;;;;;;4916679;29;20478;-72
2021/10/01 10:50:32;;;;;;;1.37;0.70;;;16.10;99.90;;;;;;4916813;29;20549;-73
2021/10/01 10:53:31;;;;;;;0.90;0.87;;;16.20;99.90;;;;;;4916648;29;20854;-72
2021/10/01 10:56:19;;;;;;;1.33;1.13;;;16.20;99.90;;;;;;4917149;29;20467;-73
2021/10/01 10:58:52;;;;;;;3.13;1.13;;;16.30;99.90;;;;;;4916651;29;20804;-71
2021/10/01 11:01:40;;;;;;;2.93;0.90;;;16.40;99.90;;;;;;4916804;29;20537;-70
2021/10/01 11:04:27;;;;;;;0.90;0.90;;;16.50;99.90;;;;;;4915505;29;20963;-70
2021/10/01 11:06:54;;;;;;;2.10;0.90;;;16.70;99.90;;;;;;4916652;29;20458;-71
2021/10/01 11:09:35;;;;;;;2.73;0.90;;;16.80;99.90;;;;;;4916238;29;20545;-71
2021/10/01 11:12:22;;;;;;;0.73;0.73;;;16.80;99.90;;;;;;4916638;29;20573;-71
2021/10/01 11:15:16;;;;;;;2.53;0.73;;;16.80;99.90;;;;;;4916612;29;20545;-73
2021/10/01 11:17:43;;;;;;;0.90;0.90;;;16.80;99.90;;;;;;4915406;29;20486;-69
2021/10/01 11:20:36;;;;;;;4.43;0.90;;;16.80;99.90;;;;;;4916398;29;20553;-69
2021/10/01 11:23:20;;;;;;;0.70;0.70;;;16.80;99.90;;;;;;4916086;29;20475;-69
2021/10/01 11:25:48;;;;;;;0.80;0.80;;;16.80;99.90;;;;;;4916266;29;20474;-69
2021/10/01 11:28:15;;;;;;;0.83;0.83;;;16.90;99.90;;;;;;4915859;29;20466;-69
2021/10/01 11:30:52;;;;;;;2.53;0.80;;;17.00;99.90;;;;;;4916233;29;20869;-69
2021/10/01 11:33:19;;;;;;;0.80;0.80;;;17.20;99.90;;;;;;4915276;29;20829;-69
2021/10/01 11:35:49;;;;;;;0.70;0.70;;;17.30;99.90;;;;;;4916087;29;20466;-70
2021/10/01 11:38:28;;;;;;;2.50;0.83;;;17.40;99.90;;;;;;4915762;29;20489;-72
2021/10/01 11:41:11;;;;;;;0.60;0.60;;;17.40;99.90;;;;;;4916097;29;20962;-73
2021/10/01 11:43:53;;;;;;;0.83;0.83;;;17.40;99.90;;;;;;4916943;29;20529;-72
2021/10/01 11:46:29;;;;;;;1.00;1.00;;;17.30;99.90;;;;;;4917657;29;20861;-73
2021/10/01 11:48:55;;;;;;;1.13;0.63;;;17.30;99.90;;;;;;4915146;29;20868;-72
2021/10/01 11:51:22;;;;;;;2.17;0.73;;;17.30;99.90;;;;;;4916207;29;20490;-72
2021/10/01 11:53:49;;;;;;;0.70;0.70;;;17.40;99.90;;;;;;4915988;29;20959;-72
2021/10/01 11:56:16;;;;;;;0.50;0.50;;;17.50;99.90;;;;;;4917271;29;20541;-72
2021/10/01 11:58:42;;;;;;;0.83;0.70;;;17.50;99.90;;;;;;4915993;29;20525;-73
2021/10/01 12:01:10;;;;;;;1.03;1.00;;;17.60;99.90;;;;;;4916062;29;20494;-73
2021/10/01 12:03:47;;;;;;;2.37;1.00;;;17.60;99.90;;;;;;4914999;29;20904;-73
2021/10/01 12:06:20;;;;;;;0.50;0.50;;;17.70;99.90;;;;;;4924609;29;20533;-73
2021/10/01 12:08:54;;;;;;;0.60;0.50;;;17.70;99.90;;;;;;4933709;29;20501;-73
2021/10/01 12:11:25;;;;;;;1.00;1.00;;;17.70;99.90;;;;;;4929098;29;20509;-73
2021/10/01 12:13:52;;;;;;;0.90;0.90;;;17.70;99.90;;;;;;4923917;29;20506;-72
2021/10/01 12:16:18;;;;;;;0.50;0.50;;;17.60;99.90;;;;;;4916327;29;20554;-73
2021/10/01 12:18:54;;;;;;;0.90;0.90;;;17.60;99.90;;;;;;4915651;29;20537;-73
2021/10/01 12:21:22;;;;;;;1.77;0.77;;;17.50;99.90;;;;;;4916008;29;20626;-73
2021/10/01 12:23:50;;;;;;;0.80;0.77;;;17.40;99.90;;;;;;4920396;29;20761;-72
2021/10/01 12:26:25;;;;;;;0.50;0.50;;;17.40;99.90;;;;;;4920602;29;20462;-73
2021/10/01 12:29:13;;;;;;;2.20;0.90;;;17.40;99.90;;;;;;4919369;29;20469;-72
2021/10/01 12:31:43;;;;;;;0.70;0.60;;;17.40;99.90;;;;;;4919553;29;20586;-73
2021/10/01 12:34:20;;;;;;;0.97;0.47;;;17.40;99.90;;;;;;4918501;29;20580;-73
2021/10/01 12:36:49;;;;;;;0.53;0.53;;;17.40;99.90;;;;;;4919212;29;20482;-73
2021/10/01 12:39:17;;;;;;;1.97;1.00;;;17.40;99.90;;;;;;4919045;29;20530;-73
2021/10/01 12:41:44;;;;;;;1.27;0.90;;;17.60;99.90;;;;;;4919069;29;20486;-72
2021/10/01 12:44:15;;;;;;;0.80;0.80;;;17.70;99.90;;;;;;4918496;29;20965;-72
2021/10/01 12:46:48;;;;;;;0.80;0.80;;;17.70;99.90;;;;;;4919383;29;20556;-72
2021/10/01 12:49:27;;;;;;;1.00;0.90;;;17.80;99.90;;;;;;4918114;29;20989;-72
2021/10/01 12:52:03;;;;;;;1.50;1.00;;;17.70;99.90;;;;;;4919894;29;20557;-73
2021/10/01 12:54:31;;;;;;;0.83;0.80;;;17.70;99.90;;;;;;4925612;29;20461;-73
2021/10/01 12:57:16;;;;;;;0.70;0.63;;;17.80;99.90;;;;;;4927653;29;20875;-72
2021/10/01 12:59:45;;;;;;;0.70;0.70;;;17.80;99.90;;;;;;4923170;29;20470;-71
2021/10/01 13:02:13;;;;;;;0.93;0.80;;;17.80;99.90;;;;;;4918269;29;20494;-71
2021/10/01 13:04:51;;;;;;;2.40;1.00;;;17.80;99.90;;;;;;4925050;29;20534;-73
2021/10/01 13:07:40;;;;;;;0.70;0.70;;;17.80;99.90;;;;;;4925749;29;20544;-72
2021/10/01 13:10:23;;;;;;;1.13;0.90;;;17.70;99.90;;;;;;4925181;29;20509;-72
2021/10/01 13:12:53;;;;;;;1.27;0.50;;;17.60;99.90;;;;;;4926080;29;20469;-73
2021/10/01 13:15:25;;;;;;;0.63;0.63;;;17.70;99.90;;;;;;4926684;29;20462;-73
2021/10/01 13:18:19;;;;;;;0.60;0.60;;;17.70;99.90;;;;;;4920537;29;20515;-69
2021/10/01 13:20:49;;;;;;;0.77;0.77;;;17.60;99.90;;;;;;4917621;29;20504;-69
2021/10/01 13:23:21;;;;;;;0.70;0.70;;;17.70;99.90;;;;;;4920315;29;20467;-69
2021/10/01 13:25:50;;;;;;;2.17;1.00;;;17.60;99.90;;;;;;4920504;29;20466;-69
2021/10/01 13:28:19;;;;;;;1.20;1.10;;;17.50;99.90;;;;;;4920258;29;20466;-69
2021/10/01 13:30:47;;;;;;;1.80;0.80;;;17.40;99.90;;;;;;4920145;29;20486;-69
2021/10/01 13:33:15;;;;;;;0.83;0.83;;;17.40;99.90;;;;;;4937176;29;20469;-69
2021/10/01 13:35:42;;;;;;;0.60;0.60;;;17.50;99.90;;;;;;4939635;29;20477;-69
2021/10/01 13:38:11;;;;;;;1.10;0.60;;;17.50;99.90;;;;;;4940026;29;20497;-69
2021/10/01 13:40:40;;;;;;;2.63;1.10;;;17.50;99.90;;;;;;4940434;29;20572;-69
2021/10/01 13:43:08;;;;;;;1.23;1.23;;;17.60;99.90;;;;;;4941206;29;20465;-69
2021/10/01 13:45:35;;;;;;;2.50;0.80;;;17.70;99.90;;;;;;4940294;29;20469;-70
2021/10/01 13:48:02;;;;;;;0.63;0.63;;;17.80;99.90;;;;;;4936186;29;20994;-69
2021/10/01 13:50:29;;;;;;;2.13;0.93;;;17.80;99.90;;;;;;4938466;29;20497;-70
2021/10/01 13:52:55;;;;;;;0.80;0.80;;;17.90;99.90;;;;;;4938140;29;20482;-69
2021/10/01 13:55:23;;;;;;;1.70;1.13;;;18.00;99.90;;;;;;4938785;29;20470;-69
2021/10/01 13:57:50;;;;;;;3.40;1.13;;;18.00;99.90;;;;;;4937119;29;20544;-70
2021/10/01 14:00:19;;;;;;;1.47;1.00;;;18.00;99.90;;;;;;4936129;29;20470;-69
2021/10/01 14:02:46;;;;;;;0.70;0.70;;;17.90;99.90;;;;;;4935639;29;20465;-69
2021/10/01 14:05:14;;;;;;;0.80;0.80;;;17.80;99.90;;;;;;4936633;29;20476;-69
2021/10/01 14:07:42;;;;;;;0.93;0.80;;;17.80;99.90;;;;;;4938420;29;20457;-70
2021/10/01 14:10:11;;;;;;;0.97;0.97;;;17.80;99.90;;;;;;4936378;29;20465;-69
2021/10/01 14:12:41;;;;;;;0.70;0.70;;;17.80;99.90;;;;;;4936260;29;20461;-70
2021/10/01 14:15:09;;;;;;;0.67;0.67;;;17.80;99.90;;;;;;4936840;29;20461;-69
2021/10/01 14:17:35;;;;;;;1.10;1.00;;;17.80;99.90;;;;;;4936003;29;20597;-70
2021/10/01 14:20:06;;;;;;;1.97;1.87;;;17.80;99.90;;;;;;4936049;29;20937;-69
2021/10/01 14:22:33;;;;;;;4.60;0.80;;;17.80;99.90;;;;;;4918844;29;20620;-69
2021/10/01 14:25:00;;;;;;;1.27;0.73;;;17.70;99.90;;;;;;4917100;29;20502;-69
2021/10/01 14:27:27;;;;;;;0.70;0.70;;;17.80;99.90;;;;;;4916965;29;20470;-69
2021/10/01 14:29:56;;;;;;;0.90;0.90;;;17.80;99.90;;;;;;4916857;29;20474;-69
2021/10/01 14:32:23;;;;;;;1.20;0.83;;;17.80;99.90;;;;;;4916191;29;20478;-69
2021/10/01 14:34:51;;;;;;;1.97;0.80;;;17.80;99.90;;;;;;4916471;29;20470;-72
2021/10/01 14:37:18;;;;;;;0.63;0.60;;;17.80;99.90;;;;;;4916792;29;20877;-71
2021/10/01 14:39:45;;;;;;;1.23;0.70;;;17.80;99.90;;;;;;4916748;29;20470;-71
2021/10/01 14:42:11;;;;;;;1.07;1.00;;;17.80;99.90;;;;;;4916759;29;20601;-70
2021/10/01 14:44:38;;;;;;;0.93;0.60;;;17.70;99.90;;;;;;4916320;29;20532;-69
2021/10/01 14:47:07;;;;;;;0.60;0.60;;;17.80;99.90;;;;;;4917294;29;20530;-69
2021/10/01 14:49:34;;;;;;;0.70;0.70;;;17.90;99.90;;;;;;4916067;29;21042;-68
2021/10/01 14:52:01;;;;;;;0.93;0.60;;;17.90;99.90;;;;;;4916714;29;20546;-69
2021/10/01 14:54:28;;;;;;;0.70;0.70;;;18.00;99.90;;;;;;4916258;29;20509;-69
2021/10/01 14:56:54;;;;;;;0.67;0.67;;;18.00;99.90;;;;;;4916468;29;20462;-69
2021/10/01 14:59:21;;;;;;;1.03;0.80;;;18.00;99.90;;;;;;4916029;29;20489;-69
2021/10/01 15:01:48;;;;;;;0.70;0.70;;;18.00;99.90;;;;;;4916474;29;20557;-69
2021/10/01 15:04:16;;;;;;;0.50;0.50;;;18.00;99.90;;;;;;4915655;29;20475;-69
2021/10/01 15:06:43;;;;;;;0.87;0.80;;;18.00;99.90;;;;;;4917153;29;20521;-71
2021/10/01 15:09:10;;;;;;;0.73;0.73;;;18.00;99.90;;;;;;4916231;29;20829;-71
2021/10/01 15:11:37;;;;;;;1.00;0.90;;;18.00;99.90;;;;;;4916739;29;20487;-71
2021/10/01 15:14:04;;;;;;;2.30;1.57;;;17.80;99.90;;;;;;4916191;29;20478;-70
2021/10/01 15:16:31;;;;;;;1.80;0.90;;;17.80;99.90;;;;;;4916617;29;20522;-70
2021/10/01 15:18:58;;;;;;;0.87;0.40;;;17.70;99.90;;;;;;4915190;29;20549;-70
2021/10/01 15:21:26;;;;;;;2.20;2.20;;;17.70;99.90;;;;;;4916315;29;20490;-70
2021/10/01 15:23:53;;;;;;;0.60;0.60;;;17.60;99.90;;;;;;4915688;29;20508;-70
2021/10/01 15:26:19;;;;;;;2.33;0.80;;;17.50;99.90;;;;;;4919325;29;20466;-70
2021/10/01 15:28:46;;;;;;;0.90;0.90;;;17.40;99.90;;;;;;4924073;29;20462;-68
2021/10/01 15:31:14;;;;;;;1.37;0.97;;;17.40;99.90;;;;;;4916586;29;20490;-69
2021/10/01 15:33:41;;;;;;;0.70;0.70;;;17.30;99.90;;;;;;4915646;29;20478;-69
2021/10/01 15:36:07;;;;;;;0.67;0.63;;;17.30;99.90;;;;;;4917776;29;20471;-69
2021/10/01 15:38:35;;;;;;;1.20;0.80;;;17.20;99.90;;;;;;4919302;29;20490;-69
2021/10/01 15:41:03;;;;;;;1.07;0.63;;;17.10;99.90;;;;;;4919879;29;20916;-70
2021/10/01 15:43:29;;;;;;;1.00;0.60;;;17.10;99.90;;;;;;4919439;29;20474;-68
2021/10/01 15:45:57;;;;;;;1.53;0.70;;;17.00;99.90;;;;;;4918070;29;20462;-68
2021/10/01 15:48:25;;;;;;;0.57;0.57;;;17.00;99.90;;;;;;4918256;29;20470;-68
2021/10/01 15:50:52;;;;;;;0.60;0.60;;;17.00;99.90;;;;;;4919297;29;21091;-68
2021/10/01 15:53:18;;;;;;;0.97;0.97;;;16.90;99.90;;;;;;4920064;29;20466;-68
2021/10/01 15:55:46;;;;;;;4.70;0.87;;;16.80;99.90;;;;;;4918440;29;20838;-70
2021/10/01 15:58:13;;;;;;;1.73;0.80;;;16.80;99.90;;;;;;4917341;29;20487;-71
2021/10/01 16:00:40;;;;;;;0.80;0.80;;;16.70;99.90;;;;;;4918412;29;20490;-70
2021/10/01 16:03:08;;;;;;;0.90;0.90;;;16.70;99.90;;;;;;4921756;29;20550;-70
2021/10/01 16:05:35;;;;;;;1.50;0.87;;;16.60;99.90;;;;;;4927212;29;20566;-72
2021/10/01 16:08:02;;;;;;;1.67;1.60;;;16.60;99.90;;;;;;4925693;29;20526;-72
2021/10/01 16:10:31;;;;;;;1.70;1.60;;;16.50;99.90;;;;;;4926131;29;20504;-73
2021/10/01 16:12:59;;;;;;;2.33;1.30;;;16.50;99.90;;;;;;4928857;29;20510;-73
2021/10/01 16:15:26;;;;;;;0.90;0.70;;;16.50;99.90;;;;;;4929325;29;20530;-72
2021/10/01 16:17:54;;;;;;;3.33;0.60;;;16.40;99.90;;;;;;4915935;29;20486;-72
2021/10/01 16:20:26;;;;;;;1.00;1.00;;;16.40;99.90;;;;;;4919448;29;20470;-72
2021/10/01 16:22:53;;;;;;;0.87;0.87;;;16.40;99.90;;;;;;4923159;29;20557;-72
2021/10/01 16:25:23;;;;;;;0.70;0.70;;;16.30;99.90;;;;;;4923764;29;20518;-72
2021/10/01 16:27:50;;;;;;;0.77;0.70;;;16.30;99.90;;;;;;4923412;29;20884;-72
2021/10/01 16:30:18;;;;;;;0.73;0.73;;;16.30;99.90;;;;;;4921277;29;20545;-71
2021/10/01 16:32:45;;;;;;;0.90;0.90;;;16.30;99.90;;;;;;4914654;29;20939;-72
2021/10/01 16:35:12;;;;;;;1.00;1.00;;;16.20;99.90;;;;;;4916196;29;20537;-72
2021/10/01 16:37:39;;;;;;;2.87;0.97;;;16.20;99.90;;;;;;4915828;29;20987;-71
2021/10/01 16:40:07;;;;;;;0.80;0.80;;;16.20;99.90;;;;;;4919500;29;20466;-72
2021/10/01 16:42:35;;;;;;;0.97;0.60;;;16.20;99.90;;;;;;4923950;29;20617;-72
2021/10/01 16:45:02;;;;;;;0.80;0.80;;;16.10;99.90;;;;;;4925177;29;20474;-72
2021/10/01 16:47:30;;;;;;;1.10;1.10;;;16.10;99.90;;;;;;4927553;29;20474;-72
2021/10/01 16:49:57;;;;;;;1.27;1.27;;;16.00;99.90;;;;;;4929213;29;20454;-71
2021/10/01 16:52:25;;;;;;;1.50;0.90;;;16.00;99.90;;;;;;4933297;29;20486;-72
2021/10/01 16:54:52;;;;;;;1.00;1.00;;;16.00;99.90;;;;;;4936237;29;20950;-72
2021/10/01 16:57:19;;;;;;;1.30;1.30;;;15.90;99.90;;;;;;4929744;29;20467;-72
2021/10/01 16:59:46;;;;;;;1.73;1.63;;;15.80;99.90;;;;;;4927022;29;21041;-72
2021/10/01 17:02:13;;;;;;;1.20;1.20;;;15.80;99.90;;;;;;4927214;29;20492;-69
2021/10/01 17:04:41;;;;;;;1.47;1.37;;;15.70;99.90;;;;;;4917999;29;20467;-68
2021/10/01 17:07:07;;;;;;;3.30;1.40;;;15.60;99.90;;;;;;4919838;29;20475;-70
2021/10/01 17:09:34;;;;;;;1.27;1.20;;;15.60;99.90;;;;;;4921492;29;20517;-68
2021/10/01 17:12:01;;;;;;;1.37;1.27;;;15.50;99.90;;;;;;4921513;29;20510;-69
2021/10/01 17:14:27;;;;;;;1.93;1.93;;;15.50;99.90;;;;;;4921579;29;20474;-67
2021/10/01 17:16:54;;;;;;;3.67;1.10;;;15.50;99.90;;;;;;4922103;29;20467;-68
2021/10/01 17:19:21;;;;;;;1.10;1.10;;;15.40;99.90;;;;;;4920863;29;20582;-68
2021/10/01 17:21:49;;;;;;;0.97;0.87;;;15.40;99.90;;;;;;4922175;29;20490;-67
2021/10/01 17:24:16;;;;;;;1.10;1.00;;;15.40;99.90;;;;;;4921503;29;20573;-67
2021/10/01 17:26:42;;;;;;;1.33;1.33;;;15.30;99.90;;;;;;4921404;29;20527;-67
2021/10/01 17:29:09;;;;;;;4.83;2.03;;;15.30;99.90;;;;;;4927873;29;20470;-69
2021/10/01 17:31:35;;;;;;;1.80;1.70;;;15.30;99.90;;;;;;4935426;29;20486;-67
2021/10/01 17:34:02;;;;;;;9.53;2.00;;;15.30;99.90;;;;;;4943028;29;20500;-70
2021/10/01 17:36:29;;;;;;;0.80;0.80;;;15.30;99.90;;;;;;4939623;29;20521;-70
2021/10/01 17:38:57;;;;;;;1.27;1.27;;;15.20;99.90;;;;;;4938486;29;20489;-69
2021/10/01 17:41:23;;;;;;;1.33;1.33;;;15.30;99.90;;;;;;4945953;29;20556;-69
2021/10/01 17:43:52;;;;;;;3.43;1.20;;;15.20;99.90;;;;;;4946098;29;20540;-71
2021/10/01 17:46:18;;;;;;;1.13;1.13;;;15.30;99.90;;;;;;4949453;29;20577;-69
2021/10/01 17:48:45;;;;;;;1.37;1.37;;;15.30;99.90;;;;;;4945759;29;20560;-71
2021/10/01 17:51:12;;;;;;;1.40;1.30;;;15.30;99.90;;;;;;4946852;29;20509;-70
2021/10/01 17:53:38;;;;;;;1.43;1.33;;;15.20;99.90;;;;;;4941680;29;20473;-70
2021/10/01 17:56:07;;;;;;;1.23;1.00;;;15.20;99.90;;;;;;4937423;29;20477;-70
2021/10/01 17:58:33;;;;;;;1.60;1.43;;;15.20;99.90;;;;;;4936632;29;20564;-70
2021/10/01 18:01:00;;;;;;;1.30;1.30;;;15.20;99.90;;;;;;4936855;29;20498;-70
2021/10/01 18:03:26;;;;;;;1.20;1.10;;;15.20;99.90;;;;;;4935711;29;20537;-70
2021/10/01 18:05:55;;;;;;;1.33;1.33;;;15.20;99.90;;;;;;4941154;29;20473;-68
2021/10/01 18:08:22;;;;;;;1.53;1.30;;;15.20;99.90;;;;;;4941435;29;20545;-68
2021/10/01 18:10:48;;;;;;;1.27;1.27;;;15.10;99.90;;;;;;4942522;29;20486;-68
2021/10/01 18:13:17;;;;;;;1.10;1.10;;;15.20;99.90;;;;;;4941328;29;20536;-68
2021/10/01 18:15:43;;;;;;;1.43;1.43;;;15.10;99.90;;;;;;4938985;29;20509;-68
2021/10/01 18:18:10;;;;;;;1.60;1.37;;;15.10;99.90;;;;;;4936296;29;20465;-68
2021/10/01 18:20:37;;;;;;;1.30;1.20;;;15.10;99.90;;;;;;4934599;29;20490;-68
2021/10/01 18:23:04;;;;;;;1.60;1.40;;;15.10;99.90;;;;;;4916894;29;20525;-67